createdAt,value
2023-04-22T00:00:20.900Z,22.98
2023-04-22T00:02:50.264Z,22.98
2023-04-22T00:05:20.524Z,22.98
2023-04-22T00:07:48.826Z,22.99
2023-04-22T00:10:16.793Z,22.98
2023-04-22T00:12:44.767Z,22.99
2023-04-22T00:15:14.269Z,23.00
2023-04-22T00:17:42.846Z,22.98
2023-04-22T00:20:13.233Z,22.99
2023-04-22T00:22:41.434Z,22.99
2023-04-22T00:25:10.188Z,22.98
2023-04-22T00:27:38.067Z,22.99
2023-04-22T00:30:08.395Z,22.98
2023-04-22T00:32:38.223Z,22.97
2023-04-22T00:35:06.934Z,22.96
2023-04-22T00:37:35.083Z,22.94
2023-04-22T00:40:03.613Z,22.94
2023-04-22T00:42:31.574Z,22.91
2023-04-22T00:45:01.045Z,22.90
2023-04-22T00:47:29.131Z,22.89
2023-04-22T00:49:58.521Z,22.90
2023-04-22T00:52:26.521Z,22.88
2023-04-22T00:54:54.661Z,22.88
2023-04-22T00:57:22.659Z,22.87
2023-04-22T00:59:50.783Z,22.86
2023-04-22T01:02:20.255Z,22.86
2023-04-22T01:04:48.376Z,22.85
2023-04-22T01:07:17.829Z,22.85
2023-04-22T01:09:45.808Z,22.84
2023-04-22T01:12:13.688Z,22.85
2023-04-22T01:14:41.737Z,22.85
2023-04-22T01:17:10.277Z,22.86
2023-04-22T01:19:38.643Z,22.86
2023-04-22T01:22:07.738Z,22.86
2023-04-22T01:24:37.154Z,22.86
2023-04-22T01:27:05.199Z,22.85
2023-04-22T01:29:33.319Z,22.86
2023-04-22T01:32:01.395Z,22.84
2023-04-22T01:34:29.411Z,22.85
2023-04-22T01:36:57.446Z,22.86
2023-04-22T01:39:25.510Z,22.84
2023-04-22T01:41:55.718Z,22.82
2023-04-22T01:44:23.715Z,22.80
2023-04-22T01:46:51.752Z,22.80
2023-04-22T01:49:19.769Z,22.79
2023-04-22T01:51:47.653Z,22.77
2023-04-22T01:54:16.131Z,22.75
2023-04-22T01:56:54.055Z,22.75
2023-04-22T01:59:23.531Z,22.74
2023-04-22T02:01:51.585Z,22.74
2023-04-22T02:04:19.605Z,22.72
2023-04-22T02:06:47.569Z,22.71
2023-04-22T02:09:15.713Z,22.71
2023-04-22T02:11:43.837Z,22.70
2023-04-22T02:14:11.780Z,22.70
2023-04-22T02:16:41.885Z,22.70
2023-04-22T02:19:10.051Z,22.70
2023-04-22T02:21:38.110Z,22.70
2023-04-22T02:24:06.614Z,22.71
2023-04-22T02:26:34.638Z,22.71
2023-04-22T02:29:02.934Z,22.72
2023-04-22T02:31:31.357Z,22.73
2023-04-22T02:34:00.704Z,22.74
2023-04-22T02:36:28.917Z,22.72
2023-04-22T02:38:56.988Z,22.72
2023-04-22T02:41:25.160Z,22.73
2023-04-22T02:43:53.169Z,22.72
2023-04-22T02:46:21.230Z,22.71
2023-04-22T02:48:49.810Z,22.70
2023-04-22T02:51:21.571Z,22.68
2023-04-22T02:53:49.562Z,22.68
2023-04-22T02:56:17.501Z,22.68
2023-04-22T02:58:45.446Z,22.65
2023-04-22T03:01:13.563Z,22.65
2023-04-22T03:03:41.915Z,22.64
2023-04-22T03:06:10.071Z,22.63
2023-04-22T03:08:39.539Z,22.62
2023-04-22T03:11:07.608Z,22.60
2023-04-22T03:13:35.585Z,22.60
2023-04-22T03:16:03.583Z,22.58
2023-04-22T03:18:31.689Z,22.58
2023-04-22T03:21:00.892Z,22.58
2023-04-22T03:23:28.861Z,22.58
2023-04-22T03:25:58.231Z,22.56
2023-04-22T03:28:26.114Z,22.54
2023-04-22T03:30:54.127Z,22.56
2023-04-22T03:33:22.581Z,22.55
2023-04-22T03:35:51.111Z,22.56
2023-04-22T03:38:19.090Z,22.55
2023-04-22T03:40:47.039Z,22.55
2023-04-22T03:43:16.398Z,22.55
2023-04-22T03:45:45.832Z,22.53
2023-04-22T03:48:13.896Z,22.53
2023-04-22T03:50:41.931Z,22.52
2023-04-22T03:53:10.041Z,22.50
2023-04-22T03:55:38.087Z,22.51
2023-04-22T03:58:05.977Z,22.52
2023-04-22T04:00:35.478Z,22.53
2023-04-22T04:03:03.543Z,22.55
2023-04-22T04:05:31.824Z,22.57
2023-04-22T04:07:59.854Z,22.59
2023-04-22T04:10:28.050Z,22.58
2023-04-22T04:12:56.393Z,22.59
2023-04-22T04:15:24.396Z,22.59
2023-04-22T04:17:53.817Z,22.60
2023-04-22T04:20:21.960Z,22.60
2023-04-22T04:22:50.052Z,22.61
2023-04-22T04:25:18.446Z,22.63
2023-04-22T04:27:46.547Z,22.64
2023-04-22T04:30:16.352Z,22.65
2023-04-22T04:32:45.711Z,22.65
2023-04-22T04:35:15.434Z,22.65
2023-04-22T04:37:44.257Z,22.66
2023-04-22T04:40:13.901Z,22.65
2023-04-22T04:42:42.475Z,22.64
2023-04-22T04:45:11.059Z,22.64
2023-04-22T04:47:39.173Z,22.61
2023-04-22T04:50:08.282Z,22.62
2023-04-22T04:52:37.765Z,22.64
2023-04-22T04:55:06.409Z,22.63
2023-04-22T04:57:35.294Z,22.64
2023-04-22T05:00:05.104Z,22.63
2023-04-22T05:02:33.121Z,22.63
2023-04-22T05:05:09.219Z,22.62
2023-04-22T05:07:38.589Z,22.63
2023-04-22T05:10:07.637Z,22.65
2023-04-22T05:12:35.777Z,22.65
2023-04-22T05:15:03.848Z,22.67
2023-04-22T05:17:31.843Z,22.70
2023-04-22T05:19:59.949Z,22.70
2023-04-22T05:22:28.078Z,22.72
2023-04-22T05:24:57.428Z,22.71
2023-04-22T05:27:25.473Z,22.72
2023-04-22T05:29:53.407Z,22.71
2023-04-22T05:32:21.715Z,22.71
2023-04-22T05:34:51.296Z,22.72
2023-04-22T05:37:19.368Z,22.70
2023-04-22T05:39:47.435Z,22.68
2023-04-22T05:42:16.849Z,22.65
2023-04-22T05:44:44.839Z,22.64
2023-04-22T05:47:12.801Z,22.65
2023-04-22T05:49:41.025Z,22.65
2023-04-22T05:52:09.328Z,22.64
2023-04-22T05:54:37.451Z,22.65
2023-04-22T05:57:05.469Z,22.65
2023-04-22T05:59:34.983Z,22.65
2023-04-22T06:02:03.211Z,22.66
2023-04-22T06:04:33.054Z,22.64
2023-04-22T06:07:02.865Z,22.64
2023-04-22T06:09:30.810Z,22.63
2023-04-22T06:11:58.878Z,22.61
2023-04-22T06:14:26.950Z,22.63
2023-04-22T06:16:57.961Z,22.65
2023-04-22T06:19:25.949Z,22.64
2023-04-22T06:21:53.913Z,22.66
2023-04-22T06:24:22.396Z,22.67
2023-04-22T06:26:55.701Z,22.68
2023-04-22T06:29:25.992Z,22.69
2023-04-22T06:31:57.726Z,22.69
2023-04-22T06:34:34.529Z,22.69
2023-04-22T06:37:02.466Z,22.67
2023-04-22T06:39:36.339Z,22.67
2023-04-22T06:42:06.944Z,22.66
2023-04-22T06:44:39.127Z,22.65
2023-04-22T06:47:09.766Z,22.65
2023-04-22T06:49:47.866Z,22.65
2023-04-22T06:52:24.323Z,22.64
2023-04-22T06:55:00.117Z,22.63
2023-04-22T06:57:29.536Z,22.64
2023-04-22T06:59:57.508Z,22.64
2023-04-22T07:02:25.689Z,22.65
2023-04-22T07:04:55.179Z,22.66
2023-04-22T07:07:23.297Z,22.66
2023-04-22T07:09:51.257Z,22.66
2023-04-22T07:12:19.328Z,22.66
2023-04-22T07:14:47.524Z,22.66
2023-04-22T07:17:15.693Z,22.68
2023-04-22T07:19:43.612Z,22.69
2023-04-22T07:22:13.022Z,22.70
2023-04-22T07:24:41.093Z,22.71
2023-04-22T07:27:08.973Z,22.74
2023-04-22T07:29:37.132Z,22.74
2023-04-22T07:32:05.372Z,22.76
2023-04-22T07:34:33.437Z,22.77
2023-04-22T07:37:01.620Z,22.79
2023-04-22T07:39:31.050Z,22.81
2023-04-22T07:41:59.090Z,22.81
2023-04-22T07:44:27.021Z,22.82
2023-04-22T07:46:55.565Z,22.83
2023-04-22T07:49:24.196Z,22.83
2023-04-22T07:51:52.346Z,22.86
2023-04-22T07:54:20.484Z,22.86
2023-04-22T07:56:49.944Z,22.84
2023-04-22T07:59:17.990Z,22.84
2023-04-22T08:01:47.189Z,22.84
2023-04-22T08:04:15.573Z,22.85
2023-04-22T08:06:43.942Z,22.85
2023-04-22T08:09:12.028Z,22.85
2023-04-22T08:11:40.046Z,22.88
2023-04-22T08:14:09.426Z,22.89
2023-04-22T08:16:37.486Z,22.90
2023-04-22T08:19:05.550Z,22.92
2023-04-22T08:21:33.484Z,22.94
2023-04-22T08:24:01.638Z,22.95
2023-04-22T08:26:29.565Z,22.97
2023-04-22T08:28:57.570Z,22.99
2023-04-22T08:31:27.103Z,22.99
2023-04-22T08:33:55.258Z,23.01
2023-04-22T08:36:25.955Z,23.03
2023-04-22T08:38:54.706Z,23.03
2023-04-22T08:41:24.539Z,23.04
2023-04-22T08:43:52.660Z,23.07
2023-04-22T08:46:21.133Z,23.08
2023-04-22T08:48:50.595Z,23.07
2023-04-22T08:51:18.867Z,23.09
2023-04-22T08:53:46.771Z,23.12
2023-04-22T08:56:14.854Z,23.09
2023-04-22T08:58:43.166Z,23.09
2023-04-22T09:01:11.164Z,23.11
2023-04-22T09:03:40.456Z,23.11
2023-04-22T09:06:10.004Z,23.10
2023-04-22T09:08:37.988Z,23.12
2023-04-22T09:11:06.371Z,23.11
2023-04-22T09:13:34.647Z,23.12
2023-04-22T09:16:02.818Z,23.14
2023-04-22T09:18:30.804Z,23.14
2023-04-22T09:20:58.833Z,23.16
2023-04-22T09:23:28.194Z,23.16
2023-04-22T09:25:58.217Z,23.19
2023-04-22T09:28:26.228Z,23.23
2023-04-22T09:30:54.262Z,23.24
2023-04-22T09:33:23.838Z,23.25
2023-04-22T09:35:51.760Z,23.26
2023-04-22T09:38:19.755Z,23.26
2023-04-22T09:40:49.258Z,23.28
2023-04-22T09:43:19.568Z,23.28
2023-04-22T09:45:47.604Z,23.29
2023-04-22T09:48:16.603Z,23.29
2023-04-22T09:50:46.482Z,23.29
2023-04-22T09:53:16.053Z,23.30
2023-04-22T09:55:45.665Z,23.30
2023-04-22T09:58:16.519Z,23.31
2023-04-22T10:00:45.720Z,23.32
2023-04-22T10:03:14.023Z,23.32
2023-04-22T10:05:42.638Z,23.33
2023-04-22T10:08:11.265Z,23.33
2023-04-22T10:10:39.960Z,23.34
2023-04-22T10:13:09.554Z,23.35
2023-04-22T10:15:40.688Z,23.36
2023-04-22T10:18:09.977Z,23.37
2023-04-22T10:20:38.480Z,23.38
2023-04-22T10:23:06.845Z,23.39
2023-04-22T10:25:34.806Z,23.41
2023-04-22T10:28:03.820Z,23.42
2023-04-22T10:30:32.460Z,23.43
2023-04-22T10:33:35.235Z,23.44
2023-04-22T10:36:18.449Z,23.45
2023-04-22T10:39:15.865Z,23.45
2023-04-22T10:41:46.918Z,23.46
2023-04-22T10:44:15.134Z,23.46
2023-04-22T10:47:01.782Z,23.47
2023-04-22T10:49:35.758Z,23.48
2023-04-22T10:52:08.829Z,23.49
2023-04-22T10:54:59.578Z,23.51
2023-04-22T10:57:38.299Z,23.49
2023-04-22T11:00:21.811Z,23.47
2023-04-22T11:02:53.319Z,23.46
2023-04-22T11:05:24.646Z,23.47
2023-04-22T11:07:56.219Z,23.46
2023-04-22T11:10:43.013Z,23.50
2023-04-22T11:13:13.943Z,23.51
2023-04-22T11:15:42.686Z,23.49
2023-04-22T11:18:19.289Z,23.50
2023-04-22T11:20:48.550Z,23.49
2023-04-22T11:23:21.378Z,23.50
2023-04-22T11:25:49.426Z,23.51
2023-04-22T11:28:18.954Z,23.51
2023-04-22T11:30:47.791Z,23.51
2023-04-22T11:33:16.138Z,23.51
2023-04-22T11:35:44.336Z,23.50
2023-04-22T11:38:12.374Z,23.49
2023-04-22T11:40:46.202Z,23.51
2023-04-22T11:43:15.192Z,23.52
2023-04-22T11:45:43.698Z,23.53
2023-04-22T11:48:12.327Z,23.54
2023-04-22T11:50:42.257Z,23.52
2023-04-22T11:53:15.112Z,23.51
2023-04-22T11:55:45.124Z,23.49
2023-04-22T11:58:14.667Z,23.49
2023-04-22T12:00:44.045Z,23.48
2023-04-22T12:03:15.608Z,23.48
2023-04-22T12:05:44.576Z,23.48
2023-04-22T12:08:13.605Z,23.48
2023-04-22T12:10:46.341Z,23.48
2023-04-22T12:13:21.154Z,23.48
2023-04-22T12:15:49.213Z,23.48
2023-04-22T12:18:17.141Z,23.51
2023-04-22T12:20:45.109Z,23.52
2023-04-22T12:23:14.659Z,23.54
2023-04-22T12:25:43.141Z,23.55
2023-04-22T12:28:13.537Z,23.56
2023-04-22T12:30:41.528Z,23.57
2023-04-22T12:33:10.252Z,23.59
2023-04-22T12:35:38.290Z,23.58
2023-04-22T12:38:06.296Z,23.60
2023-04-22T12:40:34.797Z,23.60
2023-04-22T12:43:06.163Z,23.60
2023-04-22T12:45:35.527Z,23.60
2023-04-22T12:48:03.620Z,23.61
2023-04-22T12:50:31.587Z,23.62
2023-04-22T12:52:59.638Z,23.62
2023-04-22T12:55:27.718Z,23.64
2023-04-22T12:57:55.754Z,23.64
2023-04-22T13:00:24.404Z,23.64
2023-04-22T13:02:53.893Z,23.65
2023-04-22T13:05:22.147Z,23.65
2023-04-22T13:07:56.450Z,23.66
2023-04-22T13:10:28.343Z,23.67
2023-04-22T13:13:06.052Z,23.68
2023-04-22T13:15:43.713Z,23.69
2023-04-22T13:18:13.156Z,23.70
2023-04-22T13:20:42.429Z,23.70
2023-04-22T13:23:10.731Z,23.73
2023-04-22T13:25:38.686Z,23.74
2023-04-22T13:28:07.001Z,23.75
2023-04-22T13:30:35.009Z,23.76
2023-04-22T13:33:03.405Z,23.78
2023-04-22T13:35:33.445Z,23.79
2023-04-22T13:38:01.440Z,23.81
2023-04-22T13:40:29.398Z,23.82
2023-04-22T13:42:57.428Z,23.82
2023-04-22T13:45:25.771Z,23.84
2023-04-22T13:47:54.484Z,23.83
2023-04-22T13:50:22.711Z,23.84
2023-04-22T13:53:12.140Z,23.86
2023-04-22T13:55:40.234Z,23.87
2023-04-22T13:58:08.404Z,23.87
2023-04-22T14:00:36.571Z,23.90
2023-04-22T14:03:04.575Z,23.90
2023-04-22T14:05:32.694Z,23.90
2023-04-22T14:08:02.146Z,23.92
2023-04-22T14:10:30.149Z,23.95
2023-04-22T14:12:58.436Z,23.95
2023-04-22T14:15:26.446Z,23.96
2023-04-22T14:17:54.835Z,23.98
2023-04-22T14:20:25.187Z,23.99
2023-04-22T14:22:53.223Z,24.01
2023-04-22T14:25:22.595Z,24.03
2023-04-22T14:27:50.574Z,24.06
2023-04-22T14:30:18.642Z,24.08
2023-04-22T14:32:46.654Z,24.11
2023-04-22T14:35:14.672Z,24.13
2023-04-22T14:37:45.133Z,24.16
2023-04-22T14:40:13.472Z,24.19
2023-04-22T14:42:42.860Z,24.24
2023-04-22T14:45:11.792Z,24.28
2023-04-22T14:47:39.783Z,24.32
2023-04-22T14:50:08.620Z,24.40
2023-04-22T14:52:36.679Z,24.47
2023-04-22T14:55:15.377Z,24.54
2023-04-22T14:57:50.977Z,24.62
2023-04-22T15:00:19.319Z,24.68
2023-04-22T15:02:47.592Z,24.72
2023-04-22T15:05:15.731Z,24.75
2023-04-22T15:07:43.808Z,24.79
2023-04-22T15:10:12.184Z,24.83
2023-04-22T15:12:40.347Z,24.84
2023-04-22T15:15:13.313Z,24.85
2023-04-22T15:17:41.515Z,24.85
2023-04-22T15:20:10.131Z,24.83
2023-04-22T15:22:40.885Z,24.83
2023-04-22T15:25:09.930Z,24.83
2023-04-22T15:27:38.292Z,24.83
2023-04-22T15:30:07.335Z,24.78
2023-04-22T15:32:39.077Z,24.65
2023-04-22T15:35:08.899Z,24.58
2023-04-22T15:37:37.133Z,24.62
2023-04-22T15:40:07.132Z,24.57
2023-04-22T15:42:35.107Z,24.57
2023-04-22T15:45:03.990Z,24.56
2023-04-22T15:47:32.415Z,24.56
2023-04-22T15:50:06.594Z,24.54
2023-04-22T15:52:34.813Z,24.52
2023-04-22T15:55:02.899Z,24.50
2023-04-22T15:57:34.757Z,24.48
2023-04-22T16:00:11.970Z,24.45
2023-04-22T16:02:41.718Z,24.43
2023-04-22T16:05:11.579Z,24.40
2023-04-22T16:07:40.256Z,24.37
2023-04-22T16:10:09.731Z,24.35
2023-04-22T16:12:37.640Z,24.32
2023-04-22T16:15:06.897Z,24.30
2023-04-22T16:17:34.894Z,24.28
2023-04-22T16:20:03.348Z,24.25
2023-04-22T16:22:32.711Z,24.24
2023-04-22T16:25:00.741Z,24.22
2023-04-22T16:27:28.800Z,24.22
2023-04-22T16:29:56.835Z,24.20
2023-04-22T16:32:24.856Z,24.19
2023-04-22T16:34:52.894Z,24.17
2023-04-22T16:37:20.839Z,24.16
2023-04-22T16:39:50.751Z,24.14
2023-04-22T16:42:18.791Z,24.13
2023-04-22T16:44:46.843Z,24.11
2023-04-22T16:47:14.817Z,24.09
2023-04-22T16:49:43.217Z,24.08
2023-04-22T16:52:11.473Z,24.06
2023-04-22T16:54:40.769Z,24.05
2023-04-22T16:57:10.610Z,24.02
2023-04-22T16:59:38.817Z,24.00
2023-04-22T17:02:07.071Z,24.00
2023-04-22T17:04:35.244Z,23.99
2023-04-22T17:07:03.282Z,23.97
2023-04-22T17:09:32.978Z,23.95
2023-04-22T17:12:01.609Z,23.93
2023-04-22T17:14:31.165Z,23.92
2023-04-22T17:16:59.202Z,23.90
2023-04-22T17:19:27.987Z,23.89
2023-04-22T17:21:55.992Z,23.87
2023-04-22T17:24:24.990Z,23.87
2023-04-22T17:26:53.096Z,23.86
2023-04-22T17:29:21.851Z,23.86
2023-04-22T17:31:51.583Z,23.84
2023-04-22T17:34:19.660Z,23.84
2023-04-22T17:36:47.784Z,23.82
2023-04-22T17:39:15.884Z,23.82
2023-04-22T17:41:44.225Z,23.82
2023-04-22T17:44:12.367Z,23.82
2023-04-22T17:46:41.660Z,23.81
2023-04-22T17:49:11.230Z,23.80
2023-04-22T17:51:39.221Z,23.78
2023-04-22T17:54:07.671Z,23.78
2023-04-22T17:56:35.749Z,23.76
2023-04-22T17:59:03.768Z,23.76
2023-04-22T18:01:31.831Z,23.74
2023-04-22T18:04:00.146Z,23.74
2023-04-22T18:06:29.898Z,23.72
2023-04-22T18:08:57.957Z,23.72
2023-04-22T18:11:27.962Z,23.72
2023-04-22T18:13:56.120Z,23.70
2023-04-22T18:16:24.186Z,23.68
2023-04-22T18:18:52.214Z,23.68
2023-04-22T18:21:20.475Z,23.68
2023-04-22T18:23:49.822Z,23.67
2023-04-22T18:26:17.861Z,23.67
2023-04-22T18:28:45.858Z,23.66
2023-04-22T18:31:13.844Z,23.66
2023-04-22T18:33:41.936Z,23.66
2023-04-22T18:36:10.286Z,23.65
2023-04-22T18:38:39.574Z,23.65
2023-04-22T18:41:10.933Z,23.66
2023-04-22T18:43:38.929Z,23.65
2023-04-22T18:46:07.297Z,23.65
2023-04-22T18:48:35.361Z,23.66
2023-04-22T18:51:03.455Z,23.65
2023-04-22T18:53:31.499Z,23.68
2023-04-22T18:55:59.451Z,23.68
2023-04-22T18:58:28.859Z,23.68
2023-04-22T19:00:57.145Z,23.66
2023-04-22T19:03:25.467Z,23.65
2023-04-22T19:05:53.618Z,23.65
2023-04-22T19:08:21.665Z,23.63
2023-04-22T19:10:50.800Z,23.63
2023-04-22T19:13:29.336Z,23.62
2023-04-22T19:15:59.973Z,23.61
2023-04-22T19:18:28.137Z,23.59
2023-04-22T19:20:56.328Z,23.59
2023-04-22T19:23:24.326Z,23.59
2023-04-22T19:25:53.258Z,23.58
2023-04-22T19:28:21.315Z,23.58
2023-04-22T19:30:49.445Z,23.57
2023-04-22T19:33:18.865Z,23.59
2023-04-22T19:35:46.939Z,23.59
2023-04-22T19:38:19.067Z,23.59
2023-04-22T19:40:47.406Z,23.59
2023-04-22T19:43:17.159Z,23.59
2023-04-22T19:45:45.547Z,23.58
2023-04-22T19:48:14.158Z,23.58
2023-04-22T19:50:44.267Z,23.59
2023-04-22T19:53:12.412Z,23.59
2023-04-22T19:55:40.868Z,23.58
2023-04-22T19:58:09.395Z,23.57
2023-04-22T20:00:37.696Z,23.55
2023-04-22T20:03:07.001Z,23.56
2023-04-22T20:05:35.892Z,23.57
2023-04-22T20:08:05.363Z,23.56
2023-04-22T20:10:33.383Z,23.55
2023-04-22T20:13:03.577Z,23.54
2023-04-22T20:15:32.526Z,23.55
2023-04-22T20:18:00.821Z,23.54
2023-04-22T20:20:29.493Z,23.52
2023-04-22T20:22:57.502Z,23.53
2023-04-22T20:25:28.810Z,23.52
2023-04-22T20:27:56.859Z,23.52
2023-04-22T20:30:25.053Z,23.51
2023-04-22T20:32:53.227Z,23.51
2023-04-22T20:35:21.827Z,23.51
2023-04-22T20:37:50.948Z,23.51
2023-04-22T20:40:19.134Z,23.51
2023-04-22T20:42:48.532Z,23.52
2023-04-22T20:45:17.992Z,23.52
2023-04-22T20:47:46.263Z,23.52
2023-04-22T20:50:14.816Z,23.51
2023-04-22T20:52:43.420Z,23.53
2023-04-22T20:55:14.646Z,23.52
2023-04-22T20:57:42.634Z,23.53
2023-04-22T21:00:13.109Z,23.52
2023-04-22T21:02:41.477Z,23.51
2023-04-22T21:05:11.262Z,23.51
2023-04-22T21:07:39.470Z,23.50
2023-04-22T21:10:08.861Z,23.51
2023-04-22T21:12:38.245Z,23.49
2023-04-22T21:15:07.642Z,23.49
2023-04-22T21:17:37.134Z,23.48
2023-04-22T21:20:06.477Z,23.48
2023-04-22T21:22:34.597Z,23.48
2023-04-22T21:25:02.743Z,23.46
2023-04-22T21:27:31.253Z,23.46
2023-04-22T21:29:59.365Z,23.47
2023-04-22T21:32:27.669Z,23.46
2023-04-22T21:34:57.900Z,23.46
2023-04-22T21:37:26.078Z,23.46
2023-04-22T21:39:54.049Z,23.45
2023-04-22T21:42:22.068Z,23.46
2023-04-22T21:44:50.040Z,23.47
2023-04-22T21:47:18.051Z,23.47
2023-04-22T21:49:47.129Z,23.47
2023-04-22T21:52:16.501Z,23.47
2023-04-22T21:54:44.462Z,23.47
2023-04-22T21:57:12.398Z,23.47
2023-04-22T21:59:40.467Z,23.47
2023-04-22T22:02:08.561Z,23.48
2023-04-22T22:04:36.847Z,23.47
2023-04-22T22:07:04.995Z,23.47
2023-04-22T22:09:34.441Z,23.48
2023-04-22T22:12:02.990Z,23.49
2023-04-22T22:14:31.051Z,23.56
2023-04-22T22:16:59.149Z,23.62
2023-04-22T22:19:28.477Z,23.68
2023-04-22T22:21:56.454Z,23.70
2023-04-22T22:24:25.066Z,23.74
2023-04-22T22:26:54.518Z,23.74
2023-04-22T22:29:22.520Z,23.69
2023-04-22T22:31:50.562Z,23.65
2023-04-22T22:34:18.636Z,23.64
2023-04-22T22:36:46.635Z,23.62
2023-04-22T22:39:16.263Z,23.62
2023-04-22T22:41:44.312Z,23.60
2023-04-22T22:44:13.634Z,23.59
2023-04-22T22:46:41.693Z,23.57
2023-04-22T22:49:09.804Z,23.56
2023-04-22T22:51:39.957Z,23.55
2023-04-22T22:54:10.960Z,23.54
2023-04-22T22:56:48.425Z,23.54
2023-04-22T22:59:21.155Z,23.52
2023-04-22T23:01:50.551Z,23.52
2023-04-22T23:04:18.792Z,23.49
2023-04-22T23:06:47.211Z,23.49
2023-04-22T23:09:18.964Z,23.48
2023-04-22T23:11:48.441Z,23.45
2023-04-22T23:14:17.954Z,23.46
2023-04-22T23:16:46.150Z,23.46
2023-04-22T23:19:14.481Z,23.43
2023-04-22T23:21:42.618Z,23.45
2023-04-22T23:24:11.124Z,23.44
2023-04-22T23:26:39.534Z,23.45
2023-04-22T23:29:07.624Z,23.44
2023-04-22T23:31:37.438Z,23.43
2023-04-22T23:34:06.225Z,23.43
2023-04-22T23:36:37.247Z,23.43
2023-04-22T23:39:05.908Z,23.42
2023-04-22T23:41:34.139Z,23.43
2023-04-22T23:44:02.258Z,23.42
2023-04-22T23:46:30.390Z,23.41
2023-04-22T23:49:01.470Z,23.42
2023-04-22T23:51:29.905Z,23.40
2023-04-22T23:53:57.924Z,23.40
2023-04-22T23:56:26.773Z,23.39
2023-04-22T23:58:55.498Z,23.39
